Detall de PIREP

Printer-friendly versionPDF version

[2013/03/08 19:28:00]
Flight IATA:CT3404
Pilot Number:042
Company ICAO:CAT
Aircraft Type:A343/E
PAX:122
Departing Airport: LEBL
Destination Airport: GCLP
Alternate Airport:GCXO
Online: VATSIM
Route:SENIA UZ596 NEXAS UN975 GOTOR UN857 TERTO
Flight Level:F370
No Slew and time accel
No pause
Crash detect
Detect pilot in Cockpit between each 30 and 45 minutes
19:28 Zero fuel Weight: 322013 Lbs, Fuel Weight: 239180 Lbs
19:28 VATSIM:LEBL 081900Z 22009KT 9999 FEW025 16/08 Q1006 NOSIG
19:28 VATSIM:GCLP 081900Z 06004KT 020V080 9999 FEW020 SCT045 21/18 Q1017 NOSIG
19:28 VOICE CATALONIAN
19:47 Parking Brakes off
19:58 Take-off
19:58 Take off Weight: 558497 Lbs
19:58 Wind: 212º @ 004 Knots Heading: 244º
19:58 POS N41º 16´ 43´´ E002º 03´ 52´´
19:58 Flaps:3 at 225 Knots
19:58 Gear Up: 230 Knots
19:58 Flaps:1 at 210 Knots
19:59 Flaps:0 at 226 Knots
20:13 Wind:317º@057 Knots Heading: 264º Ground Speed: 405 Knots Altitude 29127 ft
20:28 Wind:297º@066 Knots Heading: 229º Ground Speed: 446 Knots Altitude 34842 ft
20:43 Wind:293º@081 Knots Heading: 234º Ground Speed: 437 Knots Altitude 34891 ft
20:58 Wind:298º@067 Knots Heading: 248º Ground Speed: 432 Knots Altitude 34924 ft
21:13 Wind:293º@077 Knots Heading: 228º Ground Speed: 447 Knots Altitude 34967 ft
21:28 Wind:307º@061 Knots Heading: 226º Ground Speed: 461 Knots Altitude 35042 ft
21:43 Wind:301º@054 Knots Heading: 224º Ground Speed: 463 Knots Altitude 35065 ft
21:58 Wind:311º@044 Knots Heading: 222º Ground Speed: 476 Knots Altitude 35098 ft
22:13 Wind:334º@026 Knots Heading: 218º Ground Speed: 490 Knots Altitude 35141 ft
22:28 Wind:315º@023 Knots Heading: 223º Ground Speed: 402 Knots Altitude 28261 ft
22:39 Flaps:1 at 232 Knots
22:42 Flaps:3 at 211 Knots
22:43 Wind:035º@010 Knots Heading: 237º Ground Speed: 207 Knots Altitude 3605 ft
22:51 Gear Down: 185 Knots
22:51 Flaps:4 at 184 Knots
22:51 Flaps:5 at 181 Knots
22:54 TouchDown:Rate -339 ft/min Speed: 154 Knots
22:54 VATSIM:GCLP 082230Z VRB01KT 9999 FEW010 SCT030 20/19 Q1019 NOSIG
22:54 Land
22:54 Wind:038º@010 Knots
22:54 Heading: 015º
22:54 Flight Duration: 02:56
22:54 Landing Weight: 513561 Lbs
22:54 POS N27º 56´ 29´´ W015º 22´ 55´´
22:57 Parking brakes on
22:57 Block to Block Duration: 03:10
22:57 Final Fuel: 190774 Lbls
22:57 Spent Fuel: 48406 Lbls
22:57 Flight Length: 1228 NM
22:57 TOD Land Length: 1228 NM

Exportar CSV

Powered by Drupal - Modified by Danger4k